Virgie Cenac — WDC2765 — position and weather

sailwx.info

Track history (hours):
 
Tides and Currents Weather Stations Pressure Air Temp Water Temp Dewpoint Dewpoint Depression Visibility Wind Speed Wind Dir Waves Ship Positions

Virgie Cenac

More information available from US FCC via Universal Licensing System and Coast Guard Vessel Documentation Center.

Last reported at 2014-Sep-17 01:33 UTC. Time now 2014-Sep-22 08:14 UTC.
Position N 29°53' W 091°13'.

Length 18 m; draft 3 m.

Type: Towing. MMSI: 366997430.

Date/timePositionNaut miles runAvg speedWind from/ knotsBaromVisibWave heightAir tempDewpointWater temp
2014-Sep-17 01:33N 29°53' W 091°13'7 6.7
2014-Sep-17 00:33N 29°46' W 091°11'5 4.7
2014-Sep-16 23:33N 29°42' W 091°13'0 0.0
2014-Sep-16 22:33N 29°42' W 091°13'5 5.1
2014-Sep-16 21:33N 29°40' W 091°08'2 1.9
2014-Sep-16 20:32N 29°41' W 091°06'2 2.3
2014-Sep-16 19:33N 29°41' W 091°09'5 4.5
2014-Sep-16 18:33N 29°43' W 091°13'7 7.0
2014-Sep-16 17:33N 29°50' W 091°11'  
2014-Sep-13 21:33N 29°41' W 091°13'1 0.7
2014-Sep-13 20:33N 29°41' W 091°13'1 0.9
2014-Sep-13 19:33N 29°41' W 091°12'0 0.0
2014-Sep-13 18:33N 29°41' W 091°12'0 0.0
2014-Sep-13 17:33N 29°41' W 091°12'0 0.0
2014-Sep-13 16:33N 29°41' W 091°12'0 0.0
2014-Sep-13 15:33N 29°41' W 091°12'0 0.0
2014-Sep-13 14:33N 29°41' W 091°12'0 0.0
2014-Sep-13 13:33N 29°41' W 091°12'0 0.0
2014-Sep-13 12:33N 29°41' W 091°12'5 5.1
2014-Sep-13 11:33N 29°46' W 091°11'14 1.8
2014-Sep-13 03:33N 29°60' W 091°16'7 7.0
2014-Sep-13 02:30N 29°53' W 091°13'7 7.0
2014-Sep-13 01:33N 29°47' W 091°11'6 5.6
2014-Sep-13 00:33N 29°41' W 091°12'0 0.0
2014-Sep-12 23:33N 29°41' W 091°12'0 0.0
2014-Sep-12 22:33N 29°41' W 091°12'0 0.0
2014-Sep-12 21:33N 29°41' W 091°12'0 0.0
2014-Sep-12 20:33N 29°41' W 091°12'0 0.0
2014-Sep-12 19:33N 29°41' W 091°12'0 0.0
2014-Sep-12 18:33N 29°41' W 091°12'0 0.0
2014-Sep-12 17:33N 29°41' W 091°12'0 0.0
2014-Sep-12 16:33N 29°41' W 091°12'0 0.2
2014-Sep-12 15:33N 29°41' W 091°12'0 0.0
2014-Sep-12 14:33N 29°41' W 091°12'0 0.0
2014-Sep-12 13:33N 29°41' W 091°12'0 0.0
2014-Sep-12 12:33N 29°41' W 091°12'0 0.0
2014-Sep-12 11:33N 29°41' W 091°12'0 0.0
2014-Sep-12 10:33N 29°41' W 091°12'0 0.0
2014-Sep-12 09:33N 29°41' W 091°12'0 0.0
2014-Sep-12 08:33N 29°41' W 091°12'0 0.0
2014-Sep-12 07:33N 29°41' W 091°12'5 4.6
2014-Sep-12 06:33N 29°39' W 091°07'10 0.3
2014-Sep-10 18:10N 29°35' W 090°57'4 4.6
2014-Sep-10 17:13N 29°37' W 091°01'2 2.3
2014-Sep-10 16:22N 29°37' W 091°03'2 2.5
2014-Sep-10 15:33N 29°38' W 091°05'2 1.7
2014-Sep-10 14:22N 29°38' W 091°03'1 0.5
2014-Sep-10 13:10N 29°37' W 091°03'2 4.1
2014-Sep-10 12:33N 29°38' W 091°06'1 1.2
2014-Sep-10 11:33N 29°40' W 091°06'0 0.0
2014-Sep-10 10:33N 29°40' W 091°06'0 0.0
2014-Sep-10 09:33N 29°40' W 091°06'0 0.0
2014-Sep-10 08:33N 29°40' W 091°06'0 0.0
2014-Sep-10 07:33N 29°40' W 091°06'0 0.0
2014-Sep-10 06:33N 29°40' W 091°06'0 0.0
2014-Sep-10 05:33N 29°40' W 091°06'0 0.0
2014-Sep-10 04:33N 29°40' W 091°06'0 0.0
2014-Sep-10 03:33N 29°40' W 091°06'0 0.0
2014-Sep-10 02:33N 29°40' W 091°06'0 0.4
2014-Sep-10 01:33N 29°39' W 091°06'2 2.1
2014-Sep-10 00:33N 29°40' W 091°08'0 0.0
2014-Sep-09 23:33N 29°40' W 091°08'0 0.0
2014-Sep-09 22:33N 29°40' W 091°08'0 0.0
2014-Sep-09 21:33N 29°40' W 091°08'0 0.0
2014-Sep-09 20:33N 29°40' W 091°08'0 0.0
2014-Sep-09 19:33N 29°40' W 091°08'0 0.0
2014-Sep-09 18:33N 29°40' W 091°08'0 0.0
2014-Sep-09 17:33N 29°40' W 091°08'0 0.4
2014-Sep-09 16:33N 29°40' W 091°08'2 1.9
2014-Sep-09 15:33N 29°39' W 091°06'0 0.1
2014-Sep-09 14:13N 29°39' W 091°06'0 0.0
2014-Sep-09 13:10N 29°39' W 091°06'0 0.0
2014-Sep-09 12:33N 29°39' W 091°06'0 0.0
2014-Sep-09 11:33N 29°39' W 091°06'0 0.0
2014-Sep-09 10:33N 29°39' W 091°06'0 0.0
2014-Sep-09 09:33N 29°39' W 091°06'0 0.0
2014-Sep-09 08:33N 29°39' W 091°06'0 0.0
2014-Sep-09 07:33N 29°39' W 091°06'0 0.0
2014-Sep-09 06:33N 29°39' W 091°06'0 0.0
2014-Sep-09 05:33N 29°39' W 091°06'0 0.0
2014-Sep-09 04:33N 29°39' W 091°06'0 0.0
2014-Sep-09 03:33N 29°39' W 091°06'0 0.0
2014-Sep-09 02:33N 29°39' W 091°06'0 0.0
2014-Sep-09 01:33N 29°39' W 091°06'0 0.0
2014-Sep-09 00:33N 29°39' W 091°06'0 0.4
2014-Sep-08 23:28N 29°38' W 091°07'0 0.5
2014-Sep-08 22:33N 29°39' W 091°06'  
Track history (hours):
 
Tides and Currents Weather Stations Pressure Air Temp Water Temp Dewpoint Dewpoint Depression Visibility Wind Speed Wind Dir Waves Ship Positions

Virgie Cenac

More information available from US FCC via Universal Licensing System and Coast Guard Vessel Documentation Center.

Last reported at 2014-Sep-17 01:33 UTC. Time now 2014-Sep-22 08:14 UTC.
Position N 29°53' W 091°13'.

Length 18 m; draft 3 m.

Type: Towing. MMSI: 366997430.

Date/timePositionNaut miles runAvg speedWind from/ knotsBaromVisibWave heightAir tempDewpointWater temp
2014-Sep-17 01:33N 29°53' W 091°13'7 6.7
2014-Sep-17 00:33N 29°46' W 091°11'5 4.7
2014-Sep-16 23:33N 29°42' W 091°13'0 0.0
2014-Sep-16 22:33N 29°42' W 091°13'5 5.1
2014-Sep-16 21:33N 29°40' W 091°08'2 1.9
2014-Sep-16 20:32N 29°41' W 091°06'2 2.3
2014-Sep-16 19:33N 29°41' W 091°09'5 4.5
2014-Sep-16 18:33N 29°43' W 091°13'7 7.0
2014-Sep-16 17:33N 29°50' W 091°11'  
2014-Sep-13 21:33N 29°41' W 091°13'1 0.7
2014-Sep-13 20:33N 29°41' W 091°13'1 0.9
2014-Sep-13 19:33N 29°41' W 091°12'0 0.0
2014-Sep-13 18:33N 29°41' W 091°12'0 0.0
2014-Sep-13 17:33N 29°41' W 091°12'0 0.0
2014-Sep-13 16:33N 29°41' W 091°12'0 0.0
2014-Sep-13 15:33N 29°41' W 091°12'0 0.0
2014-Sep-13 14:33N 29°41' W 091°12'0 0.0
2014-Sep-13 13:33N 29°41' W 091°12'0 0.0
2014-Sep-13 12:33N 29°41' W 091°12'5 5.1
2014-Sep-13 11:33N 29°46' W 091°11'14 1.8
2014-Sep-13 03:33N 29°60' W 091°16'7 7.0
2014-Sep-13 02:30N 29°53' W 091°13'7 7.0
2014-Sep-13 01:33N 29°47' W 091°11'6 5.6
2014-Sep-13 00:33N 29°41' W 091°12'0 0.0
2014-Sep-12 23:33N 29°41' W 091°12'0 0.0
2014-Sep-12 22:33N 29°41' W 091°12'0 0.0
2014-Sep-12 21:33N 29°41' W 091°12'0 0.0
2014-Sep-12 20:33N 29°41' W 091°12'0 0.0
2014-Sep-12 19:33N 29°41' W 091°12'0 0.0
2014-Sep-12 18:33N 29°41' W 091°12'0 0.0
2014-Sep-12 17:33N 29°41' W 091°12'0 0.0
2014-Sep-12 16:33N 29°41' W 091°12'0 0.2
2014-Sep-12 15:33N 29°41' W 091°12'0 0.0
2014-Sep-12 14:33N 29°41' W 091°12'0 0.0
2014-Sep-12 13:33N 29°41' W 091°12'0 0.0
2014-Sep-12 12:33N 29°41' W 091°12'0 0.0
2014-Sep-12 11:33N 29°41' W 091°12'0 0.0
2014-Sep-12 10:33N 29°41' W 091°12'0 0.0
2014-Sep-12 09:33N 29°41' W 091°12'0 0.0
2014-Sep-12 08:33N 29°41' W 091°12'0 0.0
2014-Sep-12 07:33N 29°41' W 091°12'5 4.6
2014-Sep-12 06:33N 29°39' W 091°07'10 0.3
2014-Sep-10 18:10N 29°35' W 090°57'4 4.6
2014-Sep-10 17:13N 29°37' W 091°01'2 2.3
2014-Sep-10 16:22N 29°37' W 091°03'2 2.5
2014-Sep-10 15:33N 29°38' W 091°05'2 1.7
2014-Sep-10 14:22N 29°38' W 091°03'1 0.5
2014-Sep-10 13:10N 29°37' W 091°03'2 4.1
2014-Sep-10 12:33N 29°38' W 091°06'1 1.2
2014-Sep-10 11:33N 29°40' W 091°06'0 0.0
2014-Sep-10 10:33N 29°40' W 091°06'0 0.0
2014-Sep-10 09:33N 29°40' W 091°06'0 0.0
2014-Sep-10 08:33N 29°40' W 091°06'0 0.0
2014-Sep-10 07:33N 29°40' W 091°06'0 0.0
2014-Sep-10 06:33N 29°40' W 091°06'0 0.0
2014-Sep-10 05:33N 29°40' W 091°06'0 0.0
2014-Sep-10 04:33N 29°40' W 091°06'0 0.0
2014-Sep-10 03:33N 29°40' W 091°06'0 0.0
2014-Sep-10 02:33N 29°40' W 091°06'0 0.4
2014-Sep-10 01:33N 29°39' W 091°06'2 2.1
2014-Sep-10 00:33N 29°40' W 091°08'0 0.0
2014-Sep-09 23:33N 29°40' W 091°08'0 0.0
2014-Sep-09 22:33N 29°40' W 091°08'0 0.0
2014-Sep-09 21:33N 29°40' W 091°08'0 0.0
2014-Sep-09 20:33N 29°40' W 091°08'0 0.0
2014-Sep-09 19:33N 29°40' W 091°08'0 0.0
2014-Sep-09 18:33N 29°40' W 091°08'0 0.0
2014-Sep-09 17:33N 29°40' W 091°08'0 0.4
2014-Sep-09 16:33N 29°40' W 091°08'2 1.9
2014-Sep-09 15:33N 29°39' W 091°06'0 0.1
2014-Sep-09 14:13N 29°39' W 091°06'0 0.0
2014-Sep-09 13:10N 29°39' W 091°06'0 0.0
2014-Sep-09 12:33N 29°39' W 091°06'0 0.0
2014-Sep-09 11:33N 29°39' W 091°06'0 0.0
2014-Sep-09 10:33N 29°39' W 091°06'0 0.0
2014-Sep-09 09:33N 29°39' W 091°06'0 0.0
2014-Sep-09 08:33N 29°39' W 091°06'0 0.0
2014-Sep-09 07:33N 29°39' W 091°06'0 0.0
2014-Sep-09 06:33N 29°39' W 091°06'0 0.0
2014-Sep-09 05:33N 29°39' W 091°06'0 0.0
2014-Sep-09 04:33N 29°39' W 091°06'0 0.0
2014-Sep-09 03:33N 29°39' W 091°06'0 0.0
2014-Sep-09 02:33N 29°39' W 091°06'0 0.0
2014-Sep-09 01:33N 29°39' W 091°06'0 0.0
2014-Sep-09 00:33N 29°39' W 091°06'0 0.4
2014-Sep-08 23:28N 29°38' W 091°07'0 0.5
2014-Sep-08 22:33N 29°39' W 091°06'  

Dump ship's entire track history